sensor_id;sensor_type;location;lat;lon;timestamp;P1;durP1;ratioP1;P2;durP2;ratioP2
58518;SDS011;44310;48.106;12.008;2023-02-04T00:00:58;14.32;;;2.90;;
58518;SDS011;44310;48.106;12.008;2023-02-04T00:03:25;13.07;;;2.90;;
58518;SDS011;44310;48.106;12.008;2023-02-04T00:05:53;8.38;;;2.08;;
58518;SDS011;44310;48.106;12.008;2023-02-04T00:08:20;7.47;;;2.10;;
58518;SDS011;44310;48.106;12.008;2023-02-04T00:10:47;10.50;;;2.08;;
58518;SDS011;44310;48.106;12.008;2023-02-04T00:13:14;9.50;;;2.00;;
58518;SDS011;44310;48.106;12.008;2023-02-04T00:15:41;8.02;;;1.90;;
58518;SDS011;44310;48.106;12.008;2023-02-04T00:18:08;7.47;;;1.70;;
58518;SDS011;44310;48.106;12.008;2023-02-04T00:20:36;8.07;;;1.52;;
58518;SDS011;44310;48.106;12.008;2023-02-04T00:23:03;8.02;;;1.67;;
58518;SDS011;44310;48.106;12.008;2023-02-04T00:25:30;9.45;;;1.70;;
58518;SDS011;44310;48.106;12.008;2023-02-04T00:27:57;5.63;;;1.60;;
58518;SDS011;44310;48.106;12.008;2023-02-04T00:30:24;7.75;;;1.67;;
58518;SDS011;44310;48.106;12.008;2023-02-04T00:32:51;5.93;;;1.58;;
58518;SDS011;44310;48.106;12.008;2023-02-04T00:35:21;4.93;;;1.40;;
58518;SDS011;44310;48.106;12.008;2023-02-04T00:37:51;6.88;;;1.63;;
58518;SDS011;44310;48.106;12.008;2023-02-04T00:40:18;5.25;;;1.20;;
58518;SDS011;44310;48.106;12.008;2023-02-04T00:42:45;8.63;;;1.60;;
58518;SDS011;44310;48.106;12.008;2023-02-04T00:45:12;9.60;;;2.47;;
58518;SDS011;44310;48.106;12.008;2023-02-04T00:47:39;6.70;;;1.40;;
58518;SDS011;44310;48.106;12.008;2023-02-04T00:50:06;4.13;;;1.10;;
58518;SDS011;44310;48.106;12.008;2023-02-04T00:52:33;4.25;;;1.20;;
58518;SDS011;44310;48.106;12.008;2023-02-04T00:55:00;3.72;;;1.13;;
58518;SDS011;44310;48.106;12.008;2023-02-04T00:57:28;5.45;;;1.15;;
58518;SDS011;44310;48.106;12.008;2023-02-04T00:59:55;4.50;;;1.27;;
58518;SDS011;44310;48.106;12.008;2023-02-04T01:02:22;3.67;;;1.00;;
58518;SDS011;44310;48.106;12.008;2023-02-04T01:04:49;3.15;;;0.90;;
58518;SDS011;44310;48.106;12.008;2023-02-04T01:07:16;14.82;;;2.40;;
58518;SDS011;44310;48.106;12.008;2023-02-04T01:09:43;5.50;;;1.30;;
58518;SDS011;44310;48.106;12.008;2023-02-04T01:12:10;6.67;;;1.37;;
58518;SDS011;44310;48.106;12.008;2023-02-04T01:14:37;6.60;;;1.10;;
58518;SDS011;44310;48.106;12.008;2023-02-04T01:17:04;3.57;;;1.10;;
58518;SDS011;44310;48.106;12.008;2023-02-04T01:19:31;9.75;;;2.00;;
58518;SDS011;44310;48.106;12.008;2023-02-04T01:21:59;6.22;;;1.30;;
58518;SDS011;44310;48.106;12.008;2023-02-04T01:24:26;6.88;;;1.50;;
58518;SDS011;44310;48.106;12.008;2023-02-04T01:26:53;4.20;;;1.33;;
58518;SDS011;44310;48.106;12.008;2023-02-04T01:29:20;6.07;;;1.08;;
58518;SDS011;44310;48.106;12.008;2023-02-04T01:31:47;3.53;;;1.08;;
58518;SDS011;44310;48.106;12.008;2023-02-04T01:34:14;2.75;;;0.80;;
58518;SDS011;44310;48.106;12.008;2023-02-04T01:36:41;3.55;;;0.90;;
58518;SDS011;44310;48.106;12.008;2023-02-04T01:39:08;3.88;;;0.90;;
58518;SDS011;44310;48.106;12.008;2023-02-04T01:41:35;3.45;;;0.90;;
58518;SDS011;44310;48.106;12.008;2023-02-04T01:44:02;3.10;;;0.80;;
58518;SDS011;44310;48.106;12.008;2023-02-04T01:46:29;3.45;;;0.80;;
58518;SDS011;44310;48.106;12.008;2023-02-04T01:49:00;2.20;;;0.77;;
58518;SDS011;44310;48.106;12.008;2023-02-04T01:51:27;2.88;;;0.75;;
58518;SDS011;44310;48.106;12.008;2023-02-04T01:54:00;2.53;;;0.80;;
58518;SDS011;44310;48.106;12.008;2023-02-04T01:56:28;4.07;;;0.98;;
58518;SDS011;44310;48.106;12.008;2023-02-04T01:58:56;3.53;;;0.82;;
58518;SDS011;44310;48.106;12.008;2023-02-04T02:01:34;4.53;;;0.70;;
58518;SDS011;44310;48.106;12.008;2023-02-04T02:04:04;3.17;;;0.85;;
58518;SDS011;44310;48.106;12.008;2023-02-04T02:06:31;2.55;;;0.70;;
58518;SDS011;44310;48.106;12.008;2023-02-04T02:08:59;1.40;;;0.60;;
58518;SDS011;44310;48.106;12.008;2023-02-04T02:11:26;2.80;;;0.70;;
58518;SDS011;44310;48.106;12.008;2023-02-04T02:13:54;2.28;;;0.90;;
58518;SDS011;44310;48.106;12.008;2023-02-04T02:16:21;4.00;;;1.00;;
58518;SDS011;44310;48.106;12.008;2023-02-04T02:18:48;3.42;;;1.10;;
58518;SDS011;44310;48.106;12.008;2023-02-04T02:21:20;4.00;;;1.10;;
58518;SDS011;44310;48.106;12.008;2023-02-04T02:23:56;4.22;;;1.00;;
58518;SDS011;44310;48.106;12.008;2023-02-04T02:26:23;3.45;;;1.00;;
58518;SDS011;44310;48.106;12.008;2023-02-04T02:28:51;6.72;;;1.20;;
58518;SDS011;44310;48.106;12.008;2023-02-04T02:31:19;3.58;;;1.00;;
58518;SDS011;44310;48.106;12.008;2023-02-04T02:33:48;2.93;;;0.90;;
58518;SDS011;44310;48.106;12.008;2023-02-04T02:36:15;3.30;;;0.90;;
58518;SDS011;44310;48.106;12.008;2023-02-04T02:38:43;2.88;;;0.90;;
58518;SDS011;44310;48.106;12.008;2023-02-04T02:41:10;1.52;;;0.70;;
58518;SDS011;44310;48.106;12.008;2023-02-04T02:43:37;2.63;;;0.80;;
58518;SDS011;44310;48.106;12.008;2023-02-04T02:46:05;2.08;;;0.63;;
58518;SDS011;44310;48.106;12.008;2023-02-04T02:48:32;2.05;;;0.70;;
58518;SDS011;44310;48.106;12.008;2023-02-04T02:50:59;2.20;;;0.68;;
58518;SDS011;44310;48.106;12.008;2023-02-04T02:53:27;1.05;;;0.68;;
58518;SDS011;44310;48.106;12.008;2023-02-04T02:55:54;2.40;;;0.70;;
58518;SDS011;44310;48.106;12.008;2023-02-04T02:58:28;3.47;;;0.88;;
58518;SDS011;44310;48.106;12.008;2023-02-04T03:01:01;6.55;;;1.15;;
58518;SDS011;44310;48.106;12.008;2023-02-04T03:03:39;3.00;;;0.90;;
58518;SDS011;44310;48.106;12.008;2023-02-04T03:06:15;4.07;;;1.17;;
58518;SDS011;44310;48.106;12.008;2023-02-04T03:08:49;4.10;;;1.00;;
58518;SDS011;44310;48.106;12.008;2023-02-04T03:11:20;1.90;;;0.80;;
58518;SDS011;44310;48.106;12.008;2023-02-04T03:13:48;3.53;;;1.10;;
58518;SDS011;44310;48.106;12.008;2023-02-04T03:16:16;4.20;;;1.15;;
58518;SDS011;44310;48.106;12.008;2023-02-04T03:18:44;5.88;;;1.55;;
58518;SDS011;44310;48.106;12.008;2023-02-04T03:21:11;3.37;;;1.03;;
58518;SDS011;44310;48.106;12.008;2023-02-04T03:23:38;5.23;;;1.17;;
58518;SDS011;44310;48.106;12.008;2023-02-04T03:26:05;4.20;;;1.10;;
58518;SDS011;44310;48.106;12.008;2023-02-04T03:28:33;3.53;;;1.30;;
58518;SDS011;44310;48.106;12.008;2023-02-04T03:31:05;2.58;;;1.10;;
58518;SDS011;44310;48.106;12.008;2023-02-04T03:33:32;2.33;;;1.00;;
58518;SDS011;44310;48.106;12.008;2023-02-04T03:36:01;3.33;;;0.95;;
58518;SDS011;44310;48.106;12.008;2023-02-04T03:38:28;4.13;;;1.03;;
58518;SDS011;44310;48.106;12.008;2023-02-04T03:40:55;6.23;;;1.17;;
58518;SDS011;44310;48.106;12.008;2023-02-04T03:43:22;3.13;;;1.20;;
58518;SDS011;44310;48.106;12.008;2023-02-04T03:45:49;2.67;;;1.10;;
58518;SDS011;44310;48.106;12.008;2023-02-04T03:48:16;4.25;;;1.17;;
58518;SDS011;44310;48.106;12.008;2023-02-04T03:50:44;4.47;;;1.23;;
58518;SDS011;44310;48.106;12.008;2023-02-04T03:53:11;5.38;;;1.67;;
58518;SDS011;44310;48.106;12.008;2023-02-04T03:55:38;6.43;;;1.67;;
58518;SDS011;44310;48.106;12.008;2023-02-04T03:58:05;7.90;;;1.80;;
58518;SDS011;44310;48.106;12.008;2023-02-04T04:00:33;5.05;;;1.20;;
58518;SDS011;44310;48.106;12.008;2023-02-04T04:03:00;7.57;;;1.75;;
58518;SDS011;44310;48.106;12.008;2023-02-04T04:05:27;3.50;;;1.30;;
58518;SDS011;44310;48.106;12.008;2023-02-04T04:07:54;8.10;;;1.58;;
58518;SDS011;44310;48.106;12.008;2023-02-04T04:10:21;4.10;;;1.30;;
58518;SDS011;44310;48.106;12.008;2023-02-04T04:12:48;6.25;;;1.40;;
58518;SDS011;44310;48.106;12.008;2023-02-04T04:15:16;4.83;;;1.10;;
58518;SDS011;44310;48.106;12.008;2023-02-04T04:17:43;3.03;;;0.90;;
58518;SDS011;44310;48.106;12.008;2023-02-04T04:20:10;3.30;;;0.90;;
58518;SDS011;44310;48.106;12.008;2023-02-04T04:22:38;4.43;;;1.23;;
58518;SDS011;44310;48.106;12.008;2023-02-04T04:25:05;3.22;;;1.08;;
58518;SDS011;44310;48.106;12.008;2023-02-04T04:27:33;2.90;;;1.00;;
58518;SDS011;44310;48.106;12.008;2023-02-04T04:30:00;1.88;;;0.82;;
58518;SDS011;44310;48.106;12.008;2023-02-04T04:32:28;2.53;;;0.82;;
58518;SDS011;44310;48.106;12.008;2023-02-04T04:34:55;3.05;;;1.30;;
58518;SDS011;44310;48.106;12.008;2023-02-04T04:37:22;3.10;;;0.90;;
58518;SDS011;44310;48.106;12.008;2023-02-04T04:39:49;4.50;;;1.30;;
58518;SDS011;44310;48.106;12.008;2023-02-04T04:42:16;3.03;;;1.02;;
58518;SDS011;44310;48.106;12.008;2023-02-04T04:44:43;2.03;;;0.88;;
58518;SDS011;44310;48.106;12.008;2023-02-04T04:47:10;3.03;;;0.80;;
58518;SDS011;44310;48.106;12.008;2023-02-04T04:49:38;3.55;;;1.10;;
58518;SDS011;44310;48.106;12.008;2023-02-04T04:52:05;6.60;;;1.45;;
58518;SDS011;44310;48.106;12.008;2023-02-04T04:54:32;4.82;;;1.20;;
58518;SDS011;44310;48.106;12.008;2023-02-04T04:56:59;6.55;;;1.70;;
58518;SDS011;44310;48.106;12.008;2023-02-04T04:59:26;2.75;;;0.80;;
58518;SDS011;44310;48.106;12.008;2023-02-04T05:01:53;2.88;;;0.77;;
58518;SDS011;44310;48.106;12.008;2023-02-04T05:04:20;2.50;;;0.90;;
58518;SDS011;44310;48.106;12.008;2023-02-04T05:06:47;4.78;;;1.10;;
58518;SDS011;44310;48.106;12.008;2023-02-04T05:09:14;4.43;;;1.20;;
58518;SDS011;44310;48.106;12.008;2023-02-04T05:11:42;5.03;;;1.30;;
58518;SDS011;44310;48.106;12.008;2023-02-04T05:14:10;4.03;;;0.80;;
58518;SDS011;44310;48.106;12.008;2023-02-04T05:16:37;3.05;;;0.80;;
58518;SDS011;44310;48.106;12.008;2023-02-04T05:19:04;3.47;;;0.80;;
58518;SDS011;44310;48.106;12.008;2023-02-04T05:21:31;2.07;;;0.80;;
58518;SDS011;44310;48.106;12.008;2023-02-04T05:23:58;1.73;;;0.70;;
58518;SDS011;44310;48.106;12.008;2023-02-04T05:26:25;3.75;;;1.00;;
58518;SDS011;44310;48.106;12.008;2023-02-04T05:28:57;1.30;;;0.60;;
58518;SDS011;44310;48.106;12.008;2023-02-04T05:31:27;2.17;;;0.80;;
58518;SDS011;44310;48.106;12.008;2023-02-04T05:33:55;1.50;;;0.60;;
58518;SDS011;44310;48.106;12.008;2023-02-04T05:36:22;2.10;;;0.70;;
58518;SDS011;44310;48.106;12.008;2023-02-04T05:38:49;1.73;;;0.63;;
58518;SDS011;44310;48.106;12.008;2023-02-04T05:41:16;1.50;;;0.60;;
58518;SDS011;44310;48.106;12.008;2023-02-04T05:43:43;0.82;;;0.60;;
58518;SDS011;44310;48.106;12.008;2023-02-04T05:46:10;1.63;;;0.68;;
58518;SDS011;44310;48.106;12.008;2023-02-04T05:48:37;1.87;;;0.60;;
58518;SDS011;44310;48.106;12.008;2023-02-04T05:51:05;1.03;;;0.50;;
58518;SDS011;44310;48.106;12.008;2023-02-04T05:53:32;0.77;;;0.52;;
58518;SDS011;44310;48.106;12.008;2023-02-04T05:55:59;2.45;;;0.70;;
58518;SDS011;44310;48.106;12.008;2023-02-04T05:58:26;2.15;;;0.80;;
58518;SDS011;44310;48.106;12.008;2023-02-04T06:00:59;2.58;;;0.70;;
58518;SDS011;44310;48.106;12.008;2023-02-04T06:03:27;1.92;;;0.70;;
58518;SDS011;44310;48.106;12.008;2023-02-04T06:05:55;4.97;;;0.90;;
58518;SDS011;44310;48.106;12.008;2023-02-04T06:08:22;2.30;;;0.77;;
58518;SDS011;44310;48.106;12.008;2023-02-04T06:10:50;2.22;;;0.80;;
58518;SDS011;44310;48.106;12.008;2023-02-04T06:13:17;5.63;;;1.67;;
58518;SDS011;44310;48.106;12.008;2023-02-04T06:15:44;8.90;;;1.83;;
58518;SDS011;44310;48.106;12.008;2023-02-04T06:18:11;6.35;;;1.67;;
58518;SDS011;44310;48.106;12.008;2023-02-04T06:20:39;8.27;;;1.90;;
58518;SDS011;44310;48.106;12.008;2023-02-04T06:23:06;5.60;;;1.40;;
58518;SDS011;44310;48.106;12.008;2023-02-04T06:25:33;7.22;;;1.63;;
58518;SDS011;44310;48.106;12.008;2023-02-04T06:28:01;6.20;;;1.40;;
58518;SDS011;44310;48.106;12.008;2023-02-04T06:30:28;7.65;;;1.30;;
58518;SDS011;44310;48.106;12.008;2023-02-04T06:32:56;3.90;;;1.00;;
58518;SDS011;44310;48.106;12.008;2023-02-04T06:35:23;5.45;;;1.30;;
58518;SDS011;44310;48.106;12.008;2023-02-04T06:37:50;3.80;;;1.20;;
58518;SDS011;44310;48.106;12.008;2023-02-04T06:40:17;3.58;;;1.25;;
58518;SDS011;44310;48.106;12.008;2023-02-04T06:42:44;6.47;;;1.30;;
58518;SDS011;44310;48.106;12.008;2023-02-04T06:45:11;2.50;;;0.80;;
58518;SDS011;44310;48.106;12.008;2023-02-04T06:47:38;7.38;;;1.60;;
58518;SDS011;44310;48.106;12.008;2023-02-04T06:50:05;4.70;;;1.40;;
58518;SDS011;44310;48.106;12.008;2023-02-04T06:52:33;5.67;;;1.17;;
58518;SDS011;44310;48.106;12.008;2023-02-04T06:55:00;5.18;;;1.40;;
58518;SDS011;44310;48.106;12.008;2023-02-04T06:57:27;5.85;;;1.10;;
58518;SDS011;44310;48.106;12.008;2023-02-04T06:59:54;9.50;;;1.95;;
58518;SDS011;44310;48.106;12.008;2023-02-04T07:02:21;6.40;;;1.67;;
58518;SDS011;44310;48.106;12.008;2023-02-04T07:04:48;5.18;;;1.55;;
58518;SDS011;44310;48.106;12.008;2023-02-04T07:07:15;3.72;;;1.50;;
58518;SDS011;44310;48.106;12.008;2023-02-04T07:09:42;7.80;;;1.67;;
58518;SDS011;44310;48.106;12.008;2023-02-04T07:12:10;2.67;;;1.00;;
58518;SDS011;44310;48.106;12.008;2023-02-04T07:14:37;1.70;;;0.80;;
58518;SDS011;44310;48.106;12.008;2023-02-04T07:17:04;5.07;;;1.20;;
58518;SDS011;44310;48.106;12.008;2023-02-04T07:19:31;4.97;;;1.23;;
58518;SDS011;44310;48.106;12.008;2023-02-04T07:21:59;3.90;;;1.60;;
58518;SDS011;44310;48.106;12.008;2023-02-04T07:24:26;10.63;;;1.90;;
58518;SDS011;44310;48.106;12.008;2023-02-04T07:26:53;9.40;;;2.05;;
58518;SDS011;44310;48.106;12.008;2023-02-04T07:29:21;8.98;;;2.13;;
58518;SDS011;44310;48.106;12.008;2023-02-04T07:31:52;13.77;;;2.35;;
58518;SDS011;44310;48.106;12.008;2023-02-04T07:34:20;11.95;;;2.35;;
58518;SDS011;44310;48.106;12.008;2023-02-04T07:36:47;10.48;;;1.92;;
58518;SDS011;44310;48.106;12.008;2023-02-04T07:39:14;8.80;;;2.00;;
58518;SDS011;44310;48.106;12.008;2023-02-04T07:41:41;8.18;;;1.90;;
58518;SDS011;44310;48.106;12.008;2023-02-04T07:44:08;7.03;;;1.70;;
58518;SDS011;44310;48.106;12.008;2023-02-04T07:46:35;7.63;;;2.05;;
58518;SDS011;44310;48.106;12.008;2023-02-04T07:49:03;7.28;;;1.58;;
58518;SDS011;44310;48.106;12.008;2023-02-04T07:51:30;5.95;;;1.75;;
58518;SDS011;44310;48.106;12.008;2023-02-04T07:53:57;8.95;;;2.25;;
58518;SDS011;44310;48.106;12.008;2023-02-04T07:56:25;7.50;;;1.60;;
58518;SDS011;44310;48.106;12.008;2023-02-04T07:58:52;7.40;;;1.40;;
58518;SDS011;44310;48.106;12.008;2023-02-04T08:01:19;5.30;;;1.40;;
58518;SDS011;44310;48.106;12.008;2023-02-04T08:03:46;6.50;;;1.65;;
58518;SDS011;44310;48.106;12.008;2023-02-04T08:06:13;6.68;;;1.73;;
58518;SDS011;44310;48.106;12.008;2023-02-04T08:08:40;7.90;;;1.60;;
58518;SDS011;44310;48.106;12.008;2023-02-04T08:11:07;6.90;;;1.58;;
58518;SDS011;44310;48.106;12.008;2023-02-04T08:13:34;8.63;;;2.30;;
58518;SDS011;44310;48.106;12.008;2023-02-04T08:16:01;7.32;;;1.80;;
58518;SDS011;44310;48.106;12.008;2023-02-04T08:18:29;5.53;;;1.48;;
58518;SDS011;44310;48.106;12.008;2023-02-04T08:20:56;8.63;;;2.03;;
58518;SDS011;44310;48.106;12.008;2023-02-04T08:23:24;8.45;;;2.00;;
58518;SDS011;44310;48.106;12.008;2023-02-04T08:25:51;10.13;;;1.80;;
58518;SDS011;44310;48.106;12.008;2023-02-04T08:28:18;6.57;;;1.98;;
58518;SDS011;44310;48.106;12.008;2023-02-04T08:30:45;7.65;;;1.80;;
58518;SDS011;44310;48.106;12.008;2023-02-04T08:33:13;6.72;;;1.67;;
58518;SDS011;44310;48.106;12.008;2023-02-04T08:35:40;6.75;;;1.38;;
58518;SDS011;44310;48.106;12.008;2023-02-04T08:38:07;6.72;;;1.60;;
58518;SDS011;44310;48.106;12.008;2023-02-04T08:40:34;4.60;;;1.80;;
58518;SDS011;44310;48.106;12.008;2023-02-04T08:43:01;6.40;;;1.50;;
58518;SDS011;44310;48.106;12.008;2023-02-04T08:45:28;6.50;;;1.80;;
58518;SDS011;44310;48.106;12.008;2023-02-04T08:47:56;17.45;;;2.80;;
58518;SDS011;44310;48.106;12.008;2023-02-04T08:50:23;18.08;;;4.20;;
58518;SDS011;44310;48.106;12.008;2023-02-04T08:52:50;14.67;;;3.07;;
58518;SDS011;44310;48.106;12.008;2023-02-04T08:55:17;9.45;;;2.65;;
58518;SDS011;44310;48.106;12.008;2023-02-04T08:57:44;20.25;;;3.80;;
58518;SDS011;44310;48.106;12.008;2023-02-04T09:00:11;18.90;;;3.47;;
58518;SDS011;44310;48.106;12.008;2023-02-04T09:02:39;16.37;;;3.20;;
58518;SDS011;44310;48.106;12.008;2023-02-04T09:05:06;14.63;;;2.50;;
58518;SDS011;44310;48.106;12.008;2023-02-04T09:07:33;10.43;;;2.35;;
58518;SDS011;44310;48.106;12.008;2023-02-04T09:10:00;10.07;;;2.22;;
58518;SDS011;44310;48.106;12.008;2023-02-04T09:12:28;11.32;;;2.00;;
58518;SDS011;44310;48.106;12.008;2023-02-04T09:14:55;10.38;;;2.40;;
58518;SDS011;44310;48.106;12.008;2023-02-04T09:17:22;7.55;;;1.77;;
58518;SDS011;44310;48.106;12.008;2023-02-04T09:19:49;8.80;;;1.55;;
58518;SDS011;44310;48.106;12.008;2023-02-04T09:22:18;7.22;;;2.00;;
58518;SDS011;44310;48.106;12.008;2023-02-04T09:24:45;9.95;;;1.90;;
58518;SDS011;44310;48.106;12.008;2023-02-04T09:27:12;7.88;;;1.92;;
58518;SDS011;44310;48.106;12.008;2023-02-04T09:29:39;10.67;;;2.20;;
58518;SDS011;44310;48.106;12.008;2023-02-04T09:32:06;5.43;;;1.57;;
58518;SDS011;44310;48.106;12.008;2023-02-04T09:34:33;5.50;;;2.00;;
58518;SDS011;44310;48.106;12.008;2023-02-04T09:37:00;5.63;;;1.60;;
58518;SDS011;44310;48.106;12.008;2023-02-04T09:39:28;7.40;;;2.33;;
58518;SDS011;44310;48.106;12.008;2023-02-04T09:41:55;7.78;;;1.83;;
58518;SDS011;44310;48.106;12.008;2023-02-04T09:44:23;6.40;;;1.65;;
58518;SDS011;44310;48.106;12.008;2023-02-04T09:46:53;6.47;;;1.67;;
58518;SDS011;44310;48.106;12.008;2023-02-04T09:49:23;7.15;;;1.60;;
58518;SDS011;44310;48.106;12.008;2023-02-04T09:51:50;6.10;;;1.63;;
58518;SDS011;44310;48.106;12.008;2023-02-04T09:54:19;5.00;;;1.40;;
58518;SDS011;44310;48.106;12.008;2023-02-04T09:56:47;3.42;;;1.23;;
58518;SDS011;44310;48.106;12.008;2023-02-04T09:59:15;6.15;;;1.50;;
58518;SDS011;44310;48.106;12.008;2023-02-04T10:01:47;5.22;;;1.40;;
58518;SDS011;44310;48.106;12.008;2023-02-04T10:04:21;4.57;;;1.15;;
58518;SDS011;44310;48.106;12.008;2023-02-04T10:06:49;7.85;;;1.52;;
58518;SDS011;44310;48.106;12.008;2023-02-04T10:09:16;8.05;;;1.50;;
58518;SDS011;44310;48.106;12.008;2023-02-04T10:11:44;5.07;;;1.17;;
58518;SDS011;44310;48.106;12.008;2023-02-04T10:14:14;5.65;;;1.35;;
58518;SDS011;44310;48.106;12.008;2023-02-04T10:16:52;4.80;;;1.15;;
58518;SDS011;44310;48.106;12.008;2023-02-04T10:19:24;3.97;;;1.15;;
58518;SDS011;44310;48.106;12.008;2023-02-04T10:21:54;7.27;;;1.53;;
58518;SDS011;44310;48.106;12.008;2023-02-04T10:24:22;6.43;;;1.53;;
58518;SDS011;44310;48.106;12.008;2023-02-04T10:27:05;4.32;;;1.33;;
58518;SDS011;44310;48.106;12.008;2023-02-04T10:29:34;5.82;;;1.40;;
58518;SDS011;44310;48.106;12.008;2023-02-04T10:32:02;8.95;;;1.90;;
58518;SDS011;44310;48.106;12.008;2023-02-04T10:34:33;84.03;;;14.82;;
58518;SDS011;44310;48.106;12.008;2023-02-04T10:37:18;46.30;;;8.65;;
58518;SDS011;44310;48.106;12.008;2023-02-04T10:39:47;26.58;;;5.07;;
58518;SDS011;44310;48.106;12.008;2023-02-04T10:42:25;19.90;;;4.23;;
58518;SDS011;44310;48.106;12.008;2023-02-04T10:44:56;19.40;;;3.67;;
58518;SDS011;44310;48.106;12.008;2023-02-04T10:47:25;15.50;;;3.38;;
58518;SDS011;44310;48.106;12.008;2023-02-04T10:49:57;16.35;;;2.90;;
58518;SDS011;44310;48.106;12.008;2023-02-04T10:52:35;8.95;;;2.30;;
58518;SDS011;44310;48.106;12.008;2023-02-04T10:55:05;10.15;;;2.30;;
58518;SDS011;44310;48.106;12.008;2023-02-04T10:57:38;8.55;;;1.90;;
58518;SDS011;44310;48.106;12.008;2023-02-04T11:00:13;9.10;;;2.20;;
58518;SDS011;44310;48.106;12.008;2023-02-04T11:05:28;7.45;;;1.95;;
58518;SDS011;44310;48.106;12.008;2023-02-04T11:07:57;11.43;;;2.15;;
58518;SDS011;44310;48.106;12.008;2023-02-04T11:10:29;13.15;;;2.13;;
58518;SDS011;44310;48.106;12.008;2023-02-04T11:13:00;7.75;;;2.17;;
58518;SDS011;44310;48.106;12.008;2023-02-04T11:18:27;8.33;;;1.70;;
58518;SDS011;44310;48.106;12.008;2023-02-04T11:20:56;4.05;;;1.27;;
58518;SDS011;44310;48.106;12.008;2023-02-04T11:26:11;4.95;;;1.10;;
58518;SDS011;44310;48.106;12.008;2023-02-04T11:33:47;4.28;;;1.10;;
58518;SDS011;44310;48.106;12.008;2023-02-04T11:36:15;4.47;;;1.00;;
58518;SDS011;44310;48.106;12.008;2023-02-04T11:38:47;4.35;;;1.10;;
58518;SDS011;44310;48.106;12.008;2023-02-04T11:41:16;2.58;;;1.00;;
58518;SDS011;44310;48.106;12.008;2023-02-04T11:43:56;5.55;;;1.35;;
58518;SDS011;44310;48.106;12.008;2023-02-04T11:46:26;5.27;;;1.23;;
58518;SDS011;44310;48.106;12.008;2023-02-04T11:48:55;3.58;;;1.20;;
58518;SDS011;44310;48.106;12.008;2023-02-04T11:51:33;5.23;;;1.33;;
58518;SDS011;44310;48.106;12.008;2023-02-04T11:54:00;7.43;;;1.50;;
58518;SDS011;44310;48.106;12.008;2023-02-04T11:56:28;9.95;;;1.85;;
58518;SDS011;44310;48.106;12.008;2023-02-04T11:58:56;5.55;;;1.52;;
58518;SDS011;44310;48.106;12.008;2023-02-04T12:01:28;6.27;;;1.70;;
58518;SDS011;44310;48.106;12.008;2023-02-04T12:04:01;10.15;;;2.10;;
58518;SDS011;44310;48.106;12.008;2023-02-04T12:06:32;12.33;;;2.77;;
58518;SDS011;44310;48.106;12.008;2023-02-04T12:09:05;11.77;;;2.30;;
58518;SDS011;44310;48.106;12.008;2023-02-04T12:11:51;10.73;;;2.17;;
58518;SDS011;44310;48.106;12.008;2023-02-04T12:14:19;10.90;;;2.13;;
58518;SDS011;44310;48.106;12.008;2023-02-04T12:16:47;15.30;;;2.63;;
58518;SDS011;44310;48.106;12.008;2023-02-04T12:19:19;11.57;;;2.43;;
58518;SDS011;44310;48.106;12.008;2023-02-04T12:21:46;12.00;;;2.37;;
58518;SDS011;44310;48.106;12.008;2023-02-04T12:24:13;12.32;;;2.20;;
58518;SDS011;44310;48.106;12.008;2023-02-04T12:26:40;12.15;;;2.10;;
58518;SDS011;44310;48.106;12.008;2023-02-04T12:29:07;19.10;;;3.50;;
58518;SDS011;44310;48.106;12.008;2023-02-04T12:31:35;10.73;;;2.83;;
58518;SDS011;44310;48.106;12.008;2023-02-04T12:34:02;17.70;;;2.92;;
58518;SDS011;44310;48.106;12.008;2023-02-04T12:36:29;11.77;;;2.50;;
58518;SDS011;44310;48.106;12.008;2023-02-04T12:38:56;10.15;;;2.30;;
58518;SDS011;44310;48.106;12.008;2023-02-04T12:41:28;10.83;;;2.00;;
58518;SDS011;44310;48.106;12.008;2023-02-04T12:43:55;9.00;;;1.80;;
58518;SDS011;44310;48.106;12.008;2023-02-04T12:46:22;7.03;;;1.50;;
58518;SDS011;44310;48.106;12.008;2023-02-04T12:48:49;4.72;;;1.60;;
58518;SDS011;44310;48.106;12.008;2023-02-04T12:51:17;5.07;;;1.33;;
58518;SDS011;44310;48.106;12.008;2023-02-04T12:53:46;5.65;;;1.30;;
58518;SDS011;44310;48.106;12.008;2023-02-04T12:56:14;5.05;;;1.45;;
58518;SDS011;44310;48.106;12.008;2023-02-04T12:58:41;5.68;;;1.52;;
58518;SDS011;44310;48.106;12.008;2023-02-04T13:01:08;7.50;;;1.77;;
58518;SDS011;44310;48.106;12.008;2023-02-04T13:03:35;8.63;;;1.77;;
58518;SDS011;44310;48.106;12.008;2023-02-04T13:06:03;6.20;;;1.98;;
58518;SDS011;44310;48.106;12.008;2023-02-04T13:08:30;10.67;;;2.50;;
58518;SDS011;44310;48.106;12.008;2023-02-04T13:10:57;74.40;;;12.77;;
58518;SDS011;44310;48.106;12.008;2023-02-04T13:13:24;36.65;;;6.28;;
58518;SDS011;44310;48.106;12.008;2023-02-04T13:15:51;27.05;;;4.30;;
58518;SDS011;44310;48.106;12.008;2023-02-04T13:18:18;20.73;;;3.90;;
58518;SDS011;44310;48.106;12.008;2023-02-04T13:20:45;20.85;;;3.78;;
58518;SDS011;44310;48.106;12.008;2023-02-04T13:23:12;20.52;;;3.25;;
58518;SDS011;44310;48.106;12.008;2023-02-04T13:25:40;27.20;;;5.00;;
58518;SDS011;44310;48.106;12.008;2023-02-04T13:28:07;23.35;;;4.78;;
58518;SDS011;44310;48.106;12.008;2023-02-04T13:30:34;19.58;;;4.60;;
58518;SDS011;44310;48.106;12.008;2023-02-04T13:33:01;19.20;;;3.83;;
58518;SDS011;44310;48.106;12.008;2023-02-04T13:35:28;46.83;;;8.60;;
58518;SDS011;44310;48.106;12.008;2023-02-04T13:37:56;29.37;;;5.10;;
58518;SDS011;44310;48.106;12.008;2023-02-04T13:40:23;24.75;;;5.20;;
58518;SDS011;44310;48.106;12.008;2023-02-04T13:42:50;14.15;;;3.80;;
58518;SDS011;44310;48.106;12.008;2023-02-04T13:45:17;32.88;;;5.85;;
58518;SDS011;44310;48.106;12.008;2023-02-04T13:47:45;36.45;;;7.50;;
58518;SDS011;44310;48.106;12.008;2023-02-04T13:50:14;38.30;;;7.93;;
58518;SDS011;44310;48.106;12.008;2023-02-04T13:52:42;39.38;;;8.25;;
58518;SDS011;44310;48.106;12.008;2023-02-04T13:55:09;36.53;;;6.63;;
58518;SDS011;44310;48.106;12.008;2023-02-04T13:57:36;28.57;;;5.53;;
58518;SDS011;44310;48.106;12.008;2023-02-04T14:00:04;42.65;;;7.43;;
58518;SDS011;44310;48.106;12.008;2023-02-04T14:02:32;36.35;;;6.65;;
58518;SDS011;44310;48.106;12.008;2023-02-04T14:04:59;24.90;;;5.30;;
58518;SDS011;44310;48.106;12.008;2023-02-04T14:07:27;28.85;;;5.85;;
58518;SDS011;44310;48.106;12.008;2023-02-04T14:09:55;27.30;;;4.78;;
58518;SDS011;44310;48.106;12.008;2023-02-04T14:12:23;32.38;;;5.97;;
58518;SDS011;44310;48.106;12.008;2023-02-04T14:14:50;29.48;;;6.18;;
58518;SDS011;44310;48.106;12.008;2023-02-04T14:17:17;32.70;;;6.57;;
58518;SDS011;44310;48.106;12.008;2023-02-04T14:19:44;34.15;;;6.00;;
58518;SDS011;44310;48.106;12.008;2023-02-04T14:22:11;25.77;;;5.10;;
58518;SDS011;44310;48.106;12.008;2023-02-04T14:24:39;22.50;;;5.00;;
58518;SDS011;44310;48.106;12.008;2023-02-04T14:27:08;17.55;;;3.85;;
58518;SDS011;44310;48.106;12.008;2023-02-04T14:29:36;21.42;;;3.88;;
58518;SDS011;44310;48.106;12.008;2023-02-04T14:32:03;19.30;;;3.90;;
58518;SDS011;44310;48.106;12.008;2023-02-04T14:34:30;15.20;;;3.60;;
58518;SDS011;44310;48.106;12.008;2023-02-04T14:36:57;11.18;;;2.33;;
58518;SDS011;44310;48.106;12.008;2023-02-04T14:39:24;13.45;;;2.90;;
58518;SDS011;44310;48.106;12.008;2023-02-04T14:41:52;14.07;;;2.90;;
58518;SDS011;44310;48.106;12.008;2023-02-04T14:44:19;15.93;;;3.67;;
58518;SDS011;44310;48.106;12.008;2023-02-04T14:46:47;20.63;;;3.80;;
58518;SDS011;44310;48.106;12.008;2023-02-04T14:49:15;18.08;;;3.60;;